createdAt,value
2023-01-20T00:01:32.594Z,97328.00
2023-01-20T00:04:00.946Z,97340.69
2023-01-20T00:06:29.669Z,97355.81
2023-01-20T00:09:00.285Z,97356.69
2023-01-20T00:11:29.809Z,97356.72
2023-01-20T00:14:01.351Z,97360.09
2023-01-20T00:16:32.033Z,97355.00
2023-01-20T00:19:00.393Z,97351.63
2023-01-20T00:21:30.149Z,97366.81
2023-01-20T00:23:58.266Z,97354.97
2023-01-20T00:26:26.732Z,97373.59
2023-01-20T00:28:57.145Z,97372.69
2023-01-20T00:31:28.522Z,97371.03
2023-01-20T00:33:59.021Z,97379.44
2023-01-20T00:36:29.471Z,97372.72
2023-01-20T00:38:57.639Z,97373.53
2023-01-20T00:41:26.054Z,97373.53
2023-01-20T00:43:54.548Z,97380.28
2023-01-20T00:46:23.441Z,97384.47
2023-01-20T00:48:53.050Z,97390.38
2023-01-20T00:51:21.411Z,97383.69
2023-01-20T00:53:49.538Z,97397.19
2023-01-20T00:56:17.977Z,97402.28
2023-01-20T00:58:46.659Z,97401.41
2023-01-20T01:01:14.918Z,97411.53
2023-01-20T01:03:43.774Z,97408.16
2023-01-20T01:06:15.741Z,97409.91
2023-01-20T01:08:44.619Z,97423.38
2023-01-20T01:11:13.871Z,97417.47
2023-01-20T01:13:42.266Z,97421.69
2023-01-20T01:16:13.705Z,97416.63
2023-01-20T01:18:42.020Z,97436.00
2023-01-20T01:21:13.365Z,97430.09
2023-01-20T01:23:41.839Z,97440.13
2023-01-20T01:26:10.697Z,97440.94
2023-01-20T01:28:39.016Z,97436.78
2023-01-20T01:31:09.299Z,97436.78
2023-01-20T01:33:37.994Z,97421.63
2023-01-20T01:36:08.631Z,97441.06
2023-01-20T01:38:38.223Z,97441.84
2023-01-20T01:41:07.098Z,97424.16
2023-01-20T01:43:37.776Z,97457.09
2023-01-20T01:46:07.713Z,97413.19
2023-01-20T01:48:40.828Z,97427.59
2023-01-20T01:51:14.427Z,97445.28
2023-01-20T01:53:46.961Z,97437.63
2023-01-20T01:56:16.098Z,97441.81
2023-01-20T01:58:48.413Z,97445.25
2023-01-20T02:01:16.568Z,97445.25
2023-01-20T02:03:53.902Z,97451.19
2023-01-20T02:06:25.639Z,97451.97
2023-01-20T02:08:55.839Z,97455.31
2023-01-20T02:11:24.095Z,97444.31
2023-01-20T02:13:52.468Z,97453.63
2023-01-20T02:16:28.879Z,97444.41
2023-01-20T02:19:08.267Z,97446.94
2023-01-20T02:22:08.988Z,97459.56
2023-01-20T02:25:05.994Z,97457.88
2023-01-20T02:28:24.797Z,97446.97
2023-01-20T02:31:14.971Z,97449.38
2023-01-20T02:33:48.039Z,97456.09
2023-01-20T02:36:25.179Z,97448.44
2023-01-20T02:38:58.969Z,97461.97
2023-01-20T02:41:36.991Z,97458.59
2023-01-20T02:44:12.161Z,97447.59
2023-01-20T02:46:48.280Z,97471.25
2023-01-20T02:49:22.377Z,97448.50
2023-01-20T02:51:57.789Z,97461.19
2023-01-20T02:54:30.526Z,97467.97
2023-01-20T02:57:01.871Z,97456.09
2023-01-20T02:59:34.714Z,97464.53
2023-01-20T03:02:08.211Z,97467.03
2023-01-20T03:04:43.128Z,97460.38
2023-01-20T03:07:13.829Z,97458.69
2023-01-20T03:09:46.183Z,97451.03
2023-01-20T03:12:18.970Z,97461.16
2023-01-20T03:14:47.077Z,97456.13
2023-01-20T03:17:15.191Z,97453.63
2023-01-20T03:19:45.130Z,97452.78
2023-01-20T03:22:13.532Z,97446.00
2023-01-20T03:24:44.360Z,97451.94
2023-01-20T03:27:13.177Z,97454.38
2023-01-20T03:29:41.195Z,97458.69
2023-01-20T03:32:11.915Z,97456.94
2023-01-20T03:34:42.386Z,97467.00
2023-01-20T03:37:13.462Z,97445.91
2023-01-20T03:39:42.352Z,97464.47
2023-01-20T03:42:14.434Z,97467.84
2023-01-20T03:44:58.736Z,97472.13
2023-01-20T03:47:30.543Z,97481.38
2023-01-20T03:50:10.364Z,97477.91
2023-01-20T03:52:48.738Z,97476.94
2023-01-20T03:55:22.679Z,97483.72
2023-01-20T03:57:53.109Z,97481.13
2023-01-20T04:00:24.183Z,97479.47
2023-01-20T04:02:55.430Z,97471.03
2023-01-20T04:05:24.159Z,97483.72
2023-01-20T04:07:58.561Z,97487.94
2023-01-20T04:10:28.685Z,97485.38
2023-01-20T04:12:56.989Z,97489.59
2023-01-20T04:15:28.046Z,97486.19
2023-01-20T04:17:57.810Z,97484.56
2023-01-20T04:20:27.911Z,97492.09
2023-01-20T04:23:00.328Z,97498.81
2023-01-20T04:25:39.913Z,97503.94
2023-01-20T04:28:08.915Z,97503.03
2023-01-20T04:30:37.200Z,97504.72
2023-01-20T04:33:05.829Z,97514.88
2023-01-20T04:35:34.452Z,97515.78
2023-01-20T04:38:04.083Z,97519.06
2023-01-20T04:40:32.771Z,97519.22
2023-01-20T04:43:01.019Z,97521.66
2023-01-20T04:45:29.557Z,97528.41
2023-01-20T04:47:57.773Z,97522.50
2023-01-20T04:50:25.914Z,97535.09
2023-01-20T04:52:57.428Z,97538.38
2023-01-20T04:55:28.355Z,97536.72
2023-01-20T04:57:56.597Z,97546.03
2023-01-20T05:00:25.547Z,97542.75
2023-01-20T05:02:54.576Z,97538.38
2023-01-20T05:05:22.976Z,97554.34
2023-01-20T05:07:53.552Z,97556.94
2023-01-20T05:10:22.120Z,97561.25
2023-01-20T05:12:51.791Z,97563.84
2023-01-20T05:15:20.072Z,97574.00
2023-01-20T05:17:48.188Z,97573.09
2023-01-20T05:20:16.767Z,97575.63
2023-01-20T05:22:46.036Z,97571.44
2023-01-20T05:25:14.768Z,97583.28
2023-01-20T05:27:45.221Z,97587.50
2023-01-20T05:30:15.729Z,97587.44
2023-01-20T05:32:45.814Z,97589.16
2023-01-20T05:35:14.392Z,97599.28
2023-01-20T05:37:42.685Z,97606.03
2023-01-20T05:40:12.663Z,97605.94
2023-01-20T05:42:41.220Z,97605.13
2023-01-20T05:45:10.627Z,97613.63
2023-01-20T05:47:42.529Z,97600.13
2023-01-20T05:50:12.289Z,97612.84
2023-01-20T05:52:40.571Z,97618.72
2023-01-20T05:55:09.047Z,97615.28
2023-01-20T05:57:37.324Z,97621.97
2023-01-20T06:00:08.638Z,97610.22
2023-01-20T06:02:36.983Z,97620.34
2023-01-20T06:05:07.751Z,97630.41
2023-01-20T06:07:36.753Z,97627.09
2023-01-20T06:10:05.083Z,97638.06
2023-01-20T06:12:33.219Z,97637.25
2023-01-20T06:15:01.563Z,97637.25
2023-01-20T06:17:29.724Z,97646.53
2023-01-20T06:19:58.121Z,97647.38
2023-01-20T06:22:29.596Z,97635.53
2023-01-20T06:24:57.583Z,97656.69
2023-01-20T06:27:26.470Z,97644.09
2023-01-20T06:29:56.035Z,97649.09
2023-01-20T06:32:24.771Z,97647.50
2023-01-20T06:34:54.120Z,97642.34
2023-01-20T06:37:22.599Z,97662.63
2023-01-20T06:39:52.513Z,97666.00
2023-01-20T06:42:21.830Z,97666.00
2023-01-20T06:44:50.552Z,97662.72
2023-01-20T06:47:18.967Z,97669.47
2023-01-20T06:49:47.108Z,97665.13
2023-01-20T06:52:16.052Z,97666.09
2023-01-20T06:54:45.007Z,97674.50
2023-01-20T06:57:15.361Z,97672.00
2023-01-20T06:59:43.748Z,97677.03
2023-01-20T07:02:13.406Z,97673.66
2023-01-20T07:04:43.012Z,97677.84
2023-01-20T07:07:13.483Z,97667.72
2023-01-20T07:09:41.935Z,97668.63
2023-01-20T07:12:10.219Z,97691.53
2023-01-20T07:14:40.117Z,97695.78
2023-01-20T07:17:13.225Z,97695.81
2023-01-20T07:19:41.494Z,97702.63
2023-01-20T07:22:09.852Z,97698.41
2023-01-20T07:24:38.744Z,97711.91
2023-01-20T07:27:07.039Z,97709.44
2023-01-20T07:29:35.399Z,97712.72
2023-01-20T07:32:08.369Z,97721.16
2023-01-20T07:34:36.433Z,97723.63
2023-01-20T07:37:05.760Z,97726.97
2023-01-20T07:39:33.955Z,97711.72
2023-01-20T07:42:02.503Z,97705.78
2023-01-20T07:44:30.965Z,97729.47
2023-01-20T07:46:59.419Z,97731.13
2023-01-20T07:49:29.232Z,97721.78
2023-01-20T07:51:57.696Z,97742.91
2023-01-20T07:54:25.824Z,97738.72
2023-01-20T07:56:55.303Z,97743.78
2023-01-20T07:59:23.728Z,97730.22
2023-01-20T08:01:51.971Z,97736.16
2023-01-20T08:04:19.869Z,97753.97
2023-01-20T08:06:50.267Z,97738.72
2023-01-20T08:09:18.536Z,97760.66
2023-01-20T08:11:48.961Z,97759.88
2023-01-20T08:14:17.071Z,97770.00
2023-01-20T08:16:45.145Z,97770.88
2023-01-20T08:19:13.367Z,97766.63
2023-01-20T08:21:41.552Z,97768.34
2023-01-20T08:24:13.644Z,97769.16
2023-01-20T08:26:41.907Z,97778.47
2023-01-20T08:29:11.290Z,97776.81
2023-01-20T08:31:40.077Z,97781.00
2023-01-20T08:34:11.051Z,97779.16
2023-01-20T08:36:42.393Z,97786.00
2023-01-20T08:39:14.889Z,97773.25
2023-01-20T08:41:45.209Z,97786.06
2023-01-20T08:44:16.550Z,97796.91
2023-01-20T08:46:46.341Z,97791.63
2023-01-20T08:49:19.356Z,97794.97
2023-01-20T08:51:47.460Z,97804.16
2023-01-20T08:54:18.091Z,97785.53
2023-01-20T08:56:46.390Z,97796.72
2023-01-20T08:59:14.955Z,97813.59
2023-01-20T09:01:43.965Z,97814.59
2023-01-20T09:04:12.395Z,97814.63
2023-01-20T09:06:43.282Z,97805.31
2023-01-20T09:09:12.041Z,97821.34
2023-01-20T09:11:44.921Z,97828.19
2023-01-20T09:14:13.655Z,97819.00
2023-01-20T09:16:41.727Z,97836.66
2023-01-20T09:19:09.846Z,97828.22
2023-01-20T09:21:37.945Z,97835.75
2023-01-20T09:24:07.579Z,97845.88
2023-01-20T09:26:39.751Z,97845.97
2023-01-20T09:29:12.449Z,97850.16
2023-01-20T09:31:45.947Z,97848.53
2023-01-20T09:34:19.668Z,97863.84
2023-01-20T09:36:54.903Z,97873.91
2023-01-20T09:39:40.823Z,97861.31
2023-01-20T09:42:44.147Z,97876.13
2023-01-20T09:45:26.481Z,97873.44
2023-01-20T09:48:02.934Z,97877.75
2023-01-20T09:50:59.071Z,97879.34
2023-01-20T09:53:38.912Z,97881.81
2023-01-20T09:56:12.366Z,97879.44
2023-01-20T09:58:47.947Z,97888.81
2023-01-20T10:01:24.386Z,97888.63
2023-01-20T10:04:02.934Z,97886.00
2023-01-20T10:06:38.905Z,97893.78
2023-01-20T10:09:17.974Z,97889.22
2023-01-20T10:11:49.817Z,97884.25
2023-01-20T10:14:24.818Z,97892.56
2023-01-20T10:17:03.509Z,97892.72
2023-01-20T10:19:38.523Z,97890.19
2023-01-20T10:22:13.143Z,97886.81
2023-01-20T10:24:50.596Z,97896.19
2023-01-20T10:27:18.739Z,97886.09
2023-01-20T10:29:52.304Z,97897.28
2023-01-20T10:32:32.253Z,97887.84
2023-01-20T10:35:09.536Z,97890.41
2023-01-20T10:37:37.615Z,97898.78
2023-01-20T10:40:16.810Z,97890.22
2023-01-20T10:42:49.689Z,97884.56
2023-01-20T10:45:25.935Z,97888.78
2023-01-20T10:48:08.245Z,97897.16
2023-01-20T10:50:48.861Z,97904.66
2023-01-20T10:53:37.362Z,97904.66
2023-01-20T10:56:36.395Z,97904.03
2023-01-20T10:59:13.140Z,97900.66
2023-01-20T11:01:42.357Z,97898.13
2023-01-20T11:04:20.772Z,97903.22
2023-01-20T11:06:53.088Z,97896.56
2023-01-20T11:09:25.311Z,97904.97
2023-01-20T11:11:54.499Z,97905.09
2023-01-20T11:14:23.826Z,97902.47
2023-01-20T11:17:05.851Z,97908.31
2023-01-20T11:19:52.702Z,97901.72
2023-01-20T11:22:29.234Z,97915.38
2023-01-20T11:24:59.754Z,97904.31
2023-01-20T11:27:31.355Z,97910.28
2023-01-20T11:30:03.908Z,97893.41
2023-01-20T11:32:35.026Z,97884.84
2023-01-20T11:35:21.433Z,97913.06
2023-01-20T11:37:49.993Z,97902.84
2023-01-20T11:40:21.926Z,97900.31
2023-01-20T11:42:51.288Z,97913.94
2023-01-20T11:45:29.286Z,97908.06
2023-01-20T11:48:04.006Z,97915.72
2023-01-20T11:50:37.097Z,97919.16
2023-01-20T11:53:20.680Z,97909.06
2023-01-20T11:55:52.370Z,97903.00
2023-01-20T11:58:22.590Z,97898.66
2023-01-20T12:00:53.391Z,97899.53
2023-01-20T12:03:42.738Z,97902.00
2023-01-20T12:06:19.498Z,97908.13
2023-01-20T12:08:51.766Z,97914.16
2023-01-20T12:11:25.479Z,97915.16
2023-01-20T12:14:23.450Z,97908.41
2023-01-20T12:17:06.373Z,97911.75
2023-01-20T12:19:42.799Z,97917.72
2023-01-20T12:22:19.691Z,97914.31
2023-01-20T12:25:12.524Z,97921.88
2023-01-20T12:27:49.415Z,97921.75
2023-01-20T12:30:35.975Z,97917.47
2023-01-20T12:33:04.574Z,97923.38
2023-01-20T12:35:40.253Z,97924.19
2023-01-20T12:38:10.334Z,97931.72
2023-01-20T12:40:45.672Z,97927.47
2023-01-20T12:43:40.512Z,97939.22
2023-01-20T12:46:22.438Z,97936.72
2023-01-20T12:49:01.077Z,97928.84
2023-01-20T12:51:40.287Z,97939.94
2023-01-20T12:54:49.221Z,97930.63
2023-01-20T12:57:29.921Z,97935.72
2023-01-20T13:00:19.579Z,97942.44
2023-01-20T13:03:04.689Z,97948.38
2023-01-20T13:05:55.482Z,97948.31
2023-01-20T13:08:32.232Z,97949.25
2023-01-20T13:11:13.721Z,97933.09
2023-01-20T13:13:57.248Z,97952.59
2023-01-20T13:16:31.985Z,97955.25
2023-01-20T13:19:08.257Z,97937.25
2023-01-20T13:21:36.117Z,97961.00
2023-01-20T13:24:07.279Z,97962.75
2023-01-20T13:26:39.490Z,97966.06
2023-01-20T13:29:07.965Z,97966.19
2023-01-20T13:31:54.022Z,97971.22
2023-01-20T13:34:34.046Z,97973.69
2023-01-20T13:37:28.682Z,97977.94
2023-01-20T13:40:00.123Z,97969.34
2023-01-20T13:42:53.378Z,97965.94
2023-01-20T13:45:27.926Z,97983.84
2023-01-20T13:48:18.569Z,97970.19
2023-01-20T13:50:50.530Z,97986.16
2023-01-20T13:53:30.055Z,97980.34
2023-01-20T13:56:03.463Z,97986.22
2023-01-20T13:58:34.674Z,97991.28
2023-01-20T14:01:05.092Z,97993.03
2023-01-20T14:03:35.268Z,97988.91
2023-01-20T14:06:06.290Z,97994.00
2023-01-20T14:08:42.104Z,97996.53
2023-01-20T14:11:15.577Z,97993.09
2023-01-20T14:13:54.316Z,98001.66
2023-01-20T14:16:26.595Z,97998.25
2023-01-20T14:18:56.885Z,98014.25
2023-01-20T14:21:26.717Z,98007.41
2023-01-20T14:23:56.607Z,98012.63
2023-01-20T14:26:27.357Z,98028.53
2023-01-20T14:28:58.491Z,98025.22
2023-01-20T14:31:37.710Z,98022.78
2023-01-20T14:34:24.678Z,98025.38
2023-01-20T14:36:54.239Z,98027.88
2023-01-20T14:39:25.387Z,98031.13
2023-01-20T14:41:55.171Z,98032.75
2023-01-20T14:44:26.552Z,98038.53
2023-01-20T14:46:56.696Z,98038.53
2023-01-20T14:49:32.438Z,98025.88
2023-01-20T14:52:01.401Z,98048.81
2023-01-20T14:54:37.313Z,98041.91
2023-01-20T14:57:25.436Z,98054.59
2023-01-20T15:00:16.729Z,98053.78
2023-01-20T15:02:57.996Z,98048.66
2023-01-20T15:05:39.560Z,98059.59
2023-01-20T15:08:24.326Z,98057.91
2023-01-20T15:11:21.965Z,98057.94
2023-01-20T15:14:10.326Z,98065.59
2023-01-20T15:16:50.837Z,98060.19
2023-01-20T15:19:37.051Z,98069.50
2023-01-20T15:22:20.646Z,98072.88
2023-01-20T15:24:49.976Z,98072.78
2023-01-20T15:27:25.029Z,98081.22
2023-01-20T15:30:19.461Z,98087.13
2023-01-20T15:32:50.385Z,98071.00
2023-01-20T15:35:23.092Z,98087.22
2023-01-20T15:37:52.347Z,98094.81
2023-01-20T15:40:22.095Z,98087.97
2023-01-20T15:42:51.976Z,98091.44
2023-01-20T15:45:20.688Z,98098.09
2023-01-20T15:47:50.305Z,98106.56
2023-01-20T15:50:21.861Z,98102.41
2023-01-20T15:52:50.336Z,98098.06
2023-01-20T15:55:20.625Z,98102.38
2023-01-20T15:57:53.196Z,98106.53
2023-01-20T16:00:24.587Z,98104.00
2023-01-20T16:02:54.759Z,98109.81
2023-01-20T16:05:23.754Z,98118.16
2023-01-20T16:07:52.313Z,98120.47
2023-01-20T16:10:21.323Z,98125.53
2023-01-20T16:12:53.589Z,98134.03
2023-01-20T16:15:21.662Z,98137.34
2023-01-20T16:17:51.575Z,98135.59
2023-01-20T16:20:23.230Z,98133.97
2023-01-20T16:22:51.821Z,98139.75
2023-01-20T16:25:20.438Z,98140.50
2023-01-20T16:27:48.582Z,98139.66
2023-01-20T16:30:18.877Z,98136.97
2023-01-20T16:32:47.560Z,98143.88
2023-01-20T16:35:16.088Z,98145.44
2023-01-20T16:37:47.907Z,98161.31
2023-01-20T16:40:18.425Z,98153.59
2023-01-20T16:42:47.351Z,98159.38
2023-01-20T16:45:28.266Z,98164.31
2023-01-20T16:47:56.257Z,98158.41
2023-01-20T16:50:26.108Z,98164.50
2023-01-20T16:52:56.377Z,98161.78
2023-01-20T16:55:25.478Z,98160.88
2023-01-20T16:57:54.160Z,98166.66
2023-01-20T17:00:23.863Z,98171.03
2023-01-20T17:02:52.760Z,98166.72
2023-01-20T17:05:22.771Z,98171.59
2023-01-20T17:07:51.872Z,98183.25
2023-01-20T17:10:21.911Z,98180.78
2023-01-20T17:12:52.531Z,98188.44
2023-01-20T17:15:21.135Z,98190.13
2023-01-20T17:17:49.909Z,98192.63
2023-01-20T17:20:18.692Z,98184.94
2023-01-20T17:22:46.689Z,98192.53
2023-01-20T17:25:17.910Z,98194.00
2023-01-20T17:27:48.037Z,98194.91
2023-01-20T17:30:17.777Z,98204.88
2023-01-20T17:32:50.158Z,98196.28
2023-01-20T17:35:19.872Z,98213.88
2023-01-20T17:37:48.355Z,98202.00
2023-01-20T17:40:17.188Z,98212.97
2023-01-20T17:42:46.654Z,98199.19
2023-01-20T17:45:16.672Z,98215.25
2023-01-20T17:47:45.025Z,98217.72
2023-01-20T17:50:13.726Z,98224.44
2023-01-20T17:52:42.644Z,98208.97
2023-01-20T17:55:12.271Z,98225.94
2023-01-20T17:57:40.892Z,98223.34
2023-01-20T18:00:10.692Z,98230.78
2023-01-20T18:02:43.520Z,98232.38
2023-01-20T18:05:12.020Z,98235.13
2023-01-20T18:07:40.987Z,98235.25
2023-01-20T18:10:12.772Z,98236.47
2023-01-20T18:12:41.176Z,98241.25
2023-01-20T18:15:11.359Z,98240.44
2023-01-20T18:17:43.761Z,98233.72
2023-01-20T18:20:16.193Z,98238.69
2023-01-20T18:22:49.942Z,98246.97
2023-01-20T18:25:18.924Z,98246.34
2023-01-20T18:27:47.439Z,98247.25
2023-01-20T18:30:16.980Z,98253.13
2023-01-20T18:32:47.296Z,98246.25
2023-01-20T18:35:15.862Z,98263.94
2023-01-20T18:37:44.315Z,98241.84
2023-01-20T18:40:14.607Z,98257.22
2023-01-20T18:42:45.308Z,98240.16
2023-01-20T18:45:14.019Z,98254.59
2023-01-20T18:47:42.630Z,98245.72
2023-01-20T18:50:12.964Z,98261.78
2023-01-20T18:52:44.074Z,98259.72
2023-01-20T18:55:12.659Z,98260.56
2023-01-20T18:57:40.869Z,98255.94
2023-01-20T19:00:10.870Z,98260.72
2023-01-20T19:02:39.651Z,98254.78
2023-01-20T19:05:09.076Z,98264.31
2023-01-20T19:07:38.758Z,98273.31
2023-01-20T19:10:07.857Z,98260.72
2023-01-20T19:12:36.751Z,98260.75
2023-01-20T19:15:05.781Z,98268.91
2023-01-20T19:17:34.244Z,98266.75
2023-01-20T19:20:02.717Z,98265.16
2023-01-20T19:22:32.019Z,98283.03
2023-01-20T19:25:03.748Z,98277.84
2023-01-20T19:27:33.262Z,98274.41
2023-01-20T19:30:01.901Z,98272.38
2023-01-20T19:32:30.359Z,98288.25
2023-01-20T19:34:59.985Z,98281.59
2023-01-20T19:37:28.572Z,98282.59
2023-01-20T19:39:57.328Z,98285.63
2023-01-20T19:42:27.410Z,98296.63
2023-01-20T19:44:56.188Z,98292.53
2023-01-20T19:47:24.856Z,98298.66
2023-01-20T19:49:53.070Z,98296.22
2023-01-20T19:52:21.594Z,98285.97
2023-01-20T19:54:51.771Z,98308.16
2023-01-20T19:57:20.309Z,98308.00
2023-01-20T19:59:50.061Z,98303.88
2023-01-20T20:02:18.823Z,98300.28
2023-01-20T20:04:46.927Z,98307.75
2023-01-20T20:07:15.438Z,98305.53
2023-01-20T20:09:44.841Z,98309.06
2023-01-20T20:12:13.278Z,98317.03
2023-01-20T20:14:42.625Z,98320.25
2023-01-20T20:17:13.412Z,98324.91
2023-01-20T20:19:41.705Z,98318.78
2023-01-20T20:22:10.226Z,98334.03
2023-01-20T20:24:38.784Z,98333.13
2023-01-20T20:27:08.232Z,98342.63
2023-01-20T20:29:37.525Z,98332.22
2023-01-20T20:32:06.321Z,98343.94
2023-01-20T20:34:36.412Z,98345.34
2023-01-20T20:37:04.617Z,98345.22
2023-01-20T20:39:32.567Z,98339.09
2023-01-20T20:42:00.736Z,98343.31
2023-01-20T20:44:29.015Z,98348.41
2023-01-20T20:46:58.011Z,98347.78
2023-01-20T20:49:26.217Z,98348.50
2023-01-20T20:51:57.328Z,98351.97
2023-01-20T20:54:25.460Z,98346.28
2023-01-20T20:56:53.531Z,98356.72
2023-01-20T20:59:24.799Z,98353.94
2023-01-20T21:01:54.427Z,98350.47
2023-01-20T21:04:22.628Z,98348.94
2023-01-20T21:06:50.856Z,98358.34
2023-01-20T21:09:20.845Z,98363.56
2023-01-20T21:11:49.125Z,98356.56
2023-01-20T21:14:19.285Z,98372.88
2023-01-20T21:16:47.615Z,98361.44
2023-01-20T21:19:16.151Z,98359.66
2023-01-20T21:21:45.029Z,98370.09
2023-01-20T21:24:14.091Z,98379.59
2023-01-20T21:26:45.145Z,98359.78
2023-01-20T21:29:13.625Z,98372.13
2023-01-20T21:31:43.017Z,98378.44
2023-01-20T21:34:15.308Z,98372.38
2023-01-20T21:36:43.810Z,98360.38
2023-01-20T21:39:13.908Z,98372.94
2023-01-20T21:41:45.365Z,98362.66
2023-01-20T21:44:34.195Z,98363.28
2023-01-20T21:47:05.032Z,98369.88
2023-01-20T21:49:50.555Z,98374.19
2023-01-20T21:52:38.672Z,98369.94
2023-01-20T21:55:08.555Z,98374.28
2023-01-20T21:57:40.047Z,98365.53
2023-01-20T22:00:10.514Z,98380.63
2023-01-20T22:02:39.129Z,98358.28
2023-01-20T22:05:08.500Z,98378.34
2023-01-20T22:07:36.969Z,98378.25
2023-01-20T22:10:06.144Z,98367.66
2023-01-20T22:12:35.767Z,98384.09
2023-01-20T22:15:06.206Z,98380.63
2023-01-20T22:17:34.666Z,98384.66
2023-01-20T22:20:02.867Z,98387.84
2023-01-20T22:22:31.656Z,98383.91
2023-01-20T22:24:59.969Z,98388.22
2023-01-20T22:27:28.121Z,98377.81
2023-01-20T22:29:56.709Z,98391.56
2023-01-20T22:32:26.610Z,98388.63
2023-01-20T22:34:54.744Z,98396.97
2023-01-20T22:37:23.882Z,98399.47
2023-01-20T22:39:51.941Z,98404.50
2023-01-20T22:42:20.137Z,98398.63
2023-01-20T22:44:48.235Z,98398.97
2023-01-20T22:47:16.460Z,98411.34
2023-01-20T22:49:46.218Z,98404.72
2023-01-20T22:52:14.697Z,98407.50
2023-01-20T22:54:42.584Z,98413.47
2023-01-20T22:57:11.956Z,98414.84
2023-01-20T22:59:40.024Z,98424.06
2023-01-20T23:02:08.705Z,98432.94
2023-01-20T23:04:37.065Z,98425.59
2023-01-20T23:07:06.626Z,98432.56
2023-01-20T23:09:34.773Z,98422.88
2023-01-20T23:12:03.832Z,98430.94
2023-01-20T23:14:49.238Z,98438.06
2023-01-20T23:17:17.909Z,98440.63
2023-01-20T23:19:46.164Z,98433.53
2023-01-20T23:22:15.908Z,98439.06
2023-01-20T23:24:44.699Z,98439.44
2023-01-20T23:27:12.926Z,98437.41
2023-01-20T23:29:41.357Z,98434.19
2023-01-20T23:32:09.891Z,98442.44
2023-01-20T23:34:38.202Z,98448.28
2023-01-20T23:37:06.507Z,98444.91
2023-01-20T23:39:36.269Z,98448.16
2023-01-20T23:42:04.291Z,98439.47
2023-01-20T23:44:32.862Z,98449.75
2023-01-20T23:47:01.017Z,98446.59
2023-01-20T23:49:29.524Z,98453.19
2023-01-20T23:51:57.975Z,98447.94
2023-01-20T23:54:26.099Z,98458.31
2023-01-20T23:56:57.004Z,98452.22
2023-01-20T23:59:25.210Z,98457.25
